createdAt,value
2023-04-07T00:02:38.657Z,12.48
2023-04-07T00:07:48.832Z,12.30
2023-04-07T00:12:54.431Z,12.16
2023-04-07T00:17:55.983Z,12.08
2023-04-07T00:22:57.490Z,12.18
2023-04-07T00:27:58.994Z,12.17
2023-04-07T00:33:00.702Z,12.04
2023-04-07T00:38:02.242Z,12.02
2023-04-07T00:43:03.802Z,12.10
2023-04-07T00:48:05.919Z,12.31
2023-04-07T00:53:08.434Z,12.32
2023-04-07T00:58:10.395Z,12.36
2023-04-07T01:03:24.384Z,12.35
2023-04-07T01:08:44.946Z,12.22
2023-04-07T01:13:50.065Z,12.02
2023-04-07T01:19:11.613Z,11.97
2023-04-07T01:24:32.111Z,12.02
2023-04-07T01:29:42.139Z,11.95
2023-04-07T01:34:47.831Z,12.02
2023-04-07T01:39:49.382Z,12.04
2023-04-07T01:44:51.822Z,11.98
2023-04-07T01:49:55.197Z,12.02
2023-04-07T01:54:56.801Z,11.96
2023-04-07T01:59:59.638Z,11.98
2023-04-07T02:05:08.803Z,12.00
2023-04-07T02:10:15.264Z,11.86
2023-04-07T02:15:19.115Z,11.75
2023-04-07T02:20:22.304Z,11.57
2023-04-07T02:25:31.925Z,11.55
2023-04-07T02:30:33.899Z,11.65
2023-04-07T02:35:35.582Z,11.64
2023-04-07T02:40:37.194Z,11.72
2023-04-07T02:45:38.794Z,11.64
2023-04-07T02:50:40.246Z,11.62
2023-04-07T02:55:41.908Z,11.63
2023-04-07T03:00:43.499Z,11.50
2023-04-07T03:05:49.414Z,11.51
2023-04-07T03:10:51.111Z,11.27
2023-04-07T03:15:58.794Z,11.20
2023-04-07T03:21:05.104Z,11.17
2023-04-07T03:26:06.742Z,11.11
2023-04-07T03:31:11.262Z,11.10
2023-04-07T03:36:12.994Z,11.07
2023-04-07T03:41:15.790Z,11.10
2023-04-07T03:46:19.421Z,11.05
2023-04-07T03:51:21.189Z,11.06
2023-04-07T03:56:28.960Z,10.92
2023-04-07T04:01:32.768Z,10.88
2023-04-07T04:06:41.545Z,10.89
2023-04-07T04:11:52.323Z,10.89
2023-04-07T04:16:54.710Z,10.82
2023-04-07T04:22:19.083Z,10.80
2023-04-07T04:27:28.255Z,10.79
2023-04-07T04:32:38.267Z,10.98
2023-04-07T04:37:40.858Z,10.99
2023-04-07T04:42:45.460Z,11.02
2023-04-07T04:47:48.273Z,10.99
2023-04-07T04:52:51.182Z,10.99
2023-04-07T04:57:57.965Z,10.94
2023-04-07T05:03:09.443Z,11.19
2023-04-07T05:08:14.982Z,11.21
2023-04-07T05:13:17.480Z,11.24
2023-04-07T05:18:20.419Z,11.27
2023-04-07T05:23:22.566Z,11.22
2023-04-07T05:28:26.243Z,11.22
2023-04-07T05:33:30.541Z,11.22
2023-04-07T05:38:32.242Z,11.17
2023-04-07T05:43:41.381Z,11.15
2023-04-07T05:48:43.600Z,11.20
2023-04-07T05:53:45.178Z,11.27
2023-04-07T05:58:46.925Z,11.38
2023-04-07T06:03:50.271Z,11.39
2023-04-07T06:08:57.920Z,11.41
2023-04-07T06:14:00.036Z,11.51
2023-04-07T06:19:01.625Z,11.60
2023-04-07T06:24:04.200Z,11.69
2023-04-07T06:29:05.724Z,11.56
2023-04-07T06:34:07.217Z,11.58
2023-04-07T06:39:08.739Z,11.71
2023-04-07T06:44:10.476Z,11.71
2023-04-07T06:49:11.908Z,11.64
2023-04-07T06:54:13.359Z,11.67
2023-04-07T06:59:14.807Z,11.62
2023-04-07T07:04:16.571Z,11.74
2023-04-07T07:09:18.209Z,11.78
2023-04-07T07:14:19.663Z,11.82
2023-04-07T07:19:21.137Z,11.91
2023-04-07T07:24:22.579Z,12.04
2023-04-07T07:29:24.079Z,12.09
2023-04-07T07:34:25.745Z,12.43
2023-04-07T07:39:27.328Z,12.64
2023-04-07T07:44:30.761Z,12.93
2023-04-07T07:49:33.472Z,13.25
2023-04-07T07:54:35.092Z,13.52
2023-04-07T07:59:36.586Z,13.63
2023-04-07T08:04:38.147Z,13.92
2023-04-07T08:09:39.688Z,14.03
2023-04-07T08:14:41.294Z,14.10
2023-04-07T08:19:42.703Z,13.91
2023-04-07T08:30:07.355Z,13.94
2023-04-07T08:35:09.358Z,14.19
2023-04-07T08:40:11.780Z,14.45
2023-04-07T08:45:13.914Z,14.67
2023-04-07T08:50:17.458Z,14.51
2023-04-07T08:55:19.116Z,14.64
2023-04-07T09:00:20.858Z,14.61
2023-04-07T09:05:23.039Z,14.64
2023-04-07T09:10:24.468Z,14.68
2023-04-07T09:15:29.951Z,14.60
2023-04-07T09:21:02.155Z,14.71
2023-04-07T09:26:18.651Z,14.75
2023-04-07T09:31:22.781Z,14.86
2023-04-07T09:36:24.825Z,14.97
2023-04-07T09:41:27.726Z,15.06
2023-04-07T09:46:30.597Z,15.12
2023-04-07T09:51:32.299Z,15.18
2023-04-07T09:56:33.966Z,15.12
2023-04-07T10:01:35.850Z,15.03
2023-04-07T10:06:37.419Z,15.07
2023-04-07T10:11:40.750Z,15.08
2023-04-07T10:16:43.153Z,15.07
2023-04-07T10:21:45.187Z,15.19
2023-04-07T10:26:52.975Z,15.08
2023-04-07T10:31:54.639Z,15.26
2023-04-07T10:37:11.551Z,14.92
2023-04-07T10:42:38.039Z,14.69
2023-04-07T10:47:57.657Z,14.32
2023-04-07T10:53:12.785Z,14.52
2023-04-07T10:58:27.606Z,14.73
2023-04-07T11:03:31.444Z,14.80
2023-04-07T11:08:37.250Z,14.78
2023-04-07T11:13:46.926Z,14.50
2023-04-07T11:18:48.573Z,14.17
2023-04-07T11:23:50.214Z,14.07
2023-04-07T11:28:55.716Z,14.14
2023-04-07T11:34:04.945Z,14.17
2023-04-07T11:39:18.070Z,14.11
2023-04-07T11:44:19.933Z,14.14
2023-04-07T11:49:21.589Z,14.34
2023-04-07T11:54:23.063Z,14.53
2023-04-07T11:59:25.838Z,14.58
2023-04-07T12:04:27.391Z,14.55
2023-04-07T12:09:33.839Z,14.51
2023-04-07T12:14:36.054Z,14.68
2023-04-07T12:19:37.507Z,14.77
2023-04-07T12:24:38.935Z,14.64
2023-04-07T12:29:40.348Z,14.51
2023-04-07T12:34:41.839Z,14.31
2023-04-07T12:39:43.279Z,14.10
2023-04-07T12:44:44.828Z,14.03
2023-04-07T12:49:47.849Z,13.76
2023-04-07T12:54:50.660Z,13.89
2023-04-07T12:59:52.052Z,14.10
2023-04-07T13:04:53.485Z,13.92
2023-04-07T13:09:54.927Z,13.89
2023-04-07T13:15:00.302Z,13.89
2023-04-07T13:20:03.732Z,13.67
2023-04-07T13:25:05.773Z,13.44
2023-04-07T13:30:07.844Z,13.45
2023-04-07T13:35:09.319Z,13.29
2023-04-07T13:40:11.522Z,13.05
2023-04-07T13:45:13.046Z,13.07
2023-04-07T13:50:14.561Z,13.15
2023-04-07T13:55:16.171Z,13.24
2023-04-07T14:00:17.832Z,13.40
2023-04-07T14:05:19.269Z,13.46
2023-04-07T14:10:20.741Z,13.51
2023-04-07T14:15:22.271Z,13.25
2023-04-07T14:20:25.329Z,13.45
2023-04-07T14:25:28.091Z,13.84
2023-04-07T14:30:29.670Z,13.84
2023-04-07T14:35:31.223Z,14.00
2023-04-07T14:40:32.742Z,14.08
2023-04-07T14:45:34.881Z,14.24
2023-04-07T14:50:36.373Z,14.55
2023-04-07T14:55:37.892Z,14.54
2023-04-07T15:00:39.397Z,14.52
2023-04-07T15:05:40.853Z,14.50
2023-04-07T15:10:42.301Z,14.23
2023-04-07T15:15:43.858Z,14.32
2023-04-07T15:20:45.320Z,14.21
2023-04-07T15:25:47.560Z,14.19
2023-04-07T15:30:49.037Z,14.07
2023-04-07T15:35:50.662Z,14.19
2023-04-07T15:40:52.153Z,14.27
2023-04-07T15:45:55.619Z,14.04
2023-04-07T15:50:57.156Z,13.99
2023-04-07T15:55:58.612Z,13.82
2023-04-07T16:01:00.376Z,13.70
2023-04-07T16:06:01.946Z,13.60
2023-04-07T16:11:03.454Z,13.30
2023-04-07T16:16:05.182Z,13.34
2023-04-07T16:21:07.282Z,13.48
2023-04-07T16:26:09.069Z,13.48
2023-04-07T16:31:10.589Z,13.54
2023-04-07T16:36:12.172Z,13.43
2023-04-07T16:41:13.694Z,13.42
2023-04-07T16:46:15.216Z,13.25
2023-04-07T16:51:17.428Z,13.23
2023-04-07T16:56:20.975Z,13.21
2023-04-07T17:01:22.504Z,13.02
2023-04-07T17:06:23.970Z,12.87
2023-04-07T17:11:25.413Z,12.74
2023-04-07T17:16:26.953Z,12.78
2023-04-07T17:21:28.431Z,12.45
2023-04-07T17:26:29.918Z,12.62
2023-04-07T17:31:31.366Z,12.55
2023-04-07T17:36:33.053Z,12.71
2023-04-07T17:41:34.657Z,12.61
2023-04-07T17:46:36.242Z,12.67
2023-04-07T17:51:37.729Z,12.58
2023-04-07T17:56:39.228Z,12.61
2023-04-07T18:01:40.801Z,12.61
2023-04-07T18:06:42.393Z,12.55
2023-04-07T18:11:43.833Z,12.43
2023-04-07T18:16:45.319Z,12.31
2023-04-07T18:21:47.210Z,12.41
2023-04-07T18:26:48.695Z,12.43
2023-04-07T18:31:50.282Z,12.42
2023-04-07T18:36:52.136Z,12.53
2023-04-07T18:41:56.839Z,12.59
2023-04-07T18:46:58.341Z,12.62
2023-04-07T18:51:59.806Z,12.62
2023-04-07T18:57:01.374Z,12.57
2023-04-07T19:02:02.952Z,12.55
2023-04-07T19:07:04.614Z,12.46
2023-04-07T19:12:06.098Z,12.55
2023-04-07T19:17:07.635Z,12.53
2023-04-07T19:22:09.128Z,12.50
2023-04-07T19:27:10.674Z,12.51
2023-04-07T19:32:12.103Z,12.46
2023-04-07T19:37:13.550Z,12.43
2023-04-07T19:42:15.862Z,12.43
2023-04-07T19:47:17.403Z,12.39
2023-04-07T19:52:18.907Z,12.43
2023-04-07T19:57:20.422Z,12.41
2023-04-07T20:02:22.001Z,12.43
2023-04-07T20:07:23.474Z,12.48
2023-04-07T20:12:24.965Z,12.45
2023-04-07T20:17:26.527Z,12.53
2023-04-07T20:22:28.041Z,12.53
2023-04-07T20:27:29.463Z,12.35
2023-04-07T20:32:31.043Z,12.41
2023-04-07T20:37:32.538Z,12.37
2023-04-07T20:42:34.572Z,12.42
2023-04-07T20:47:36.090Z,12.44
2023-04-07T20:52:37.605Z,12.47
2023-04-07T20:57:39.032Z,12.53
2023-04-07T21:02:40.615Z,12.50
2023-04-07T21:07:42.244Z,12.33
2023-04-07T21:12:43.739Z,12.18
2023-04-07T21:17:45.356Z,12.13
2023-04-07T21:22:46.856Z,12.05
2023-04-07T21:27:48.406Z,11.97
2023-04-07T21:32:50.043Z,11.90
2023-04-07T21:37:51.599Z,11.90
2023-04-07T21:42:53.085Z,11.83
2023-04-07T21:47:54.568Z,11.79
2023-04-07T21:52:56.020Z,11.74
2023-04-07T21:57:57.489Z,11.78
2023-04-07T22:02:59.270Z,11.73
2023-04-07T22:08:00.875Z,11.80
2023-04-07T22:13:02.370Z,11.88
2023-04-07T22:18:03.916Z,11.86
2023-04-07T22:23:05.420Z,11.84
2023-04-07T22:28:06.972Z,11.89
2023-04-07T22:33:10.174Z,11.97
2023-04-07T22:38:11.808Z,11.93
2023-04-07T22:43:13.216Z,11.88
2023-04-07T22:48:14.808Z,11.86
2023-04-07T22:53:16.260Z,11.77
2023-04-07T22:58:17.706Z,11.67
2023-04-07T23:03:19.258Z,11.58
2023-04-07T23:08:20.913Z,11.57
2023-04-07T23:13:22.414Z,11.50
2023-04-07T23:18:23.940Z,11.51
2023-04-07T23:23:25.504Z,11.56
2023-04-07T23:28:26.969Z,11.51
2023-04-07T23:33:30.671Z,11.50
2023-04-07T23:38:32.172Z,11.50
2023-04-07T23:43:33.790Z,11.29
2023-04-07T23:48:35.290Z,11.22
2023-04-07T23:53:36.736Z,11.22
2023-04-07T23:58:38.264Z,11.23
